sensor_id;sensor_type;location;lat;lon;timestamp;P1;durP1;ratioP1;P2;durP2;ratioP2
1977;SDS011;989;53.016;8.346;2022-10-19T00:01:49;14.90;;;2.37;;
1977;SDS011;989;53.016;8.346;2022-10-19T00:04:15;10.17;;;2.57;;
1977;SDS011;989;53.016;8.346;2022-10-19T00:06:40;9.00;;;2.63;;
1977;SDS011;989;53.016;8.346;2022-10-19T00:09:08;3.90;;;2.07;;
1977;SDS011;989;53.016;8.346;2022-10-19T00:11:37;7.10;;;2.20;;
1977;SDS011;989;53.016;8.346;2022-10-19T00:14:07;13.60;;;2.80;;
1977;SDS011;989;53.016;8.346;2022-10-19T00:16:36;15.77;;;2.87;;
1977;SDS011;989;53.016;8.346;2022-10-19T00:19:04;10.27;;;2.97;;
1977;SDS011;989;53.016;8.346;2022-10-19T00:21:37;6.07;;;2.10;;
1977;SDS011;989;53.016;8.346;2022-10-19T00:24:03;7.37;;;2.10;;
1977;SDS011;989;53.016;8.346;2022-10-19T00:26:30;5.77;;;1.70;;
1977;SDS011;989;53.016;8.346;2022-10-19T00:28:56;7.33;;;2.10;;
1977;SDS011;989;53.016;8.346;2022-10-19T00:31:22;6.90;;;1.83;;
1977;SDS011;989;53.016;8.346;2022-10-19T00:33:49;21.13;;;2.63;;
1977;SDS011;989;53.016;8.346;2022-10-19T00:36:22;8.80;;;1.67;;
1977;SDS011;989;53.016;8.346;2022-10-19T00:38:51;10.93;;;2.20;;
1977;SDS011;989;53.016;8.346;2022-10-19T00:41:18;16.43;;;1.80;;
1977;SDS011;989;53.016;8.346;2022-10-19T00:44:00;15.63;;;3.00;;
1977;SDS011;989;53.016;8.346;2022-10-19T00:46:29;8.03;;;2.00;;
1977;SDS011;989;53.016;8.346;2022-10-19T00:49:05;8.80;;;2.17;;
1977;SDS011;989;53.016;8.346;2022-10-19T00:51:36;8.83;;;2.30;;
1977;SDS011;989;53.016;8.346;2022-10-19T00:54:05;10.67;;;2.70;;
1977;SDS011;989;53.016;8.346;2022-10-19T00:56:32;6.03;;;2.07;;
1977;SDS011;989;53.016;8.346;2022-10-19T00:59:00;4.87;;;1.83;;
1977;SDS011;989;53.016;8.346;2022-10-19T01:01:28;14.77;;;2.97;;
1977;SDS011;989;53.016;8.346;2022-10-19T01:03:55;10.23;;;2.50;;
1977;SDS011;989;53.016;8.346;2022-10-19T01:06:21;7.13;;;2.43;;
1977;SDS011;989;53.016;8.346;2022-10-19T01:08:48;9.37;;;2.17;;
1977;SDS011;989;53.016;8.346;2022-10-19T01:11:25;5.03;;;1.90;;
1977;SDS011;989;53.016;8.346;2022-10-19T01:14:27;15.00;;;2.13;;
1977;SDS011;989;53.016;8.346;2022-10-19T01:23:28;5.17;;;1.80;;
1977;SDS011;989;53.016;8.346;2022-10-19T01:35:10;11.30;;;1.77;;
1977;SDS011;989;53.016;8.346;2022-10-19T01:38:35;24.87;;;4.30;;
1977;SDS011;989;53.016;8.346;2022-10-19T01:41:13;9.40;;;2.43;;
1977;SDS011;989;53.016;8.346;2022-10-19T01:43:53;14.17;;;3.00;;
1977;SDS011;989;53.016;8.346;2022-10-19T01:49:00;4.33;;;1.70;;
1977;SDS011;989;53.016;8.346;2022-10-19T01:51:36;9.67;;;2.00;;
1977;SDS011;989;53.016;8.346;2022-10-19T01:54:08;5.13;;;1.63;;
1977;SDS011;989;53.016;8.346;2022-10-19T01:56:36;12.73;;;1.87;;
1977;SDS011;989;53.016;8.346;2022-10-19T01:59:06;5.57;;;2.07;;
1977;SDS011;989;53.016;8.346;2022-10-19T02:01:34;9.87;;;1.60;;
1977;SDS011;989;53.016;8.346;2022-10-19T02:04:05;11.73;;;2.10;;
1977;SDS011;989;53.016;8.346;2022-10-19T02:06:31;10.57;;;1.60;;
1977;SDS011;989;53.016;8.346;2022-10-19T02:08:57;20.27;;;2.17;;
1977;SDS011;989;53.016;8.346;2022-10-19T02:11:22;6.00;;;1.50;;
1977;SDS011;989;53.016;8.346;2022-10-19T02:13:50;10.77;;;2.47;;
1977;SDS011;989;53.016;8.346;2022-10-19T02:16:28;6.07;;;1.70;;
1977;SDS011;989;53.016;8.346;2022-10-19T02:19:00;12.83;;;1.67;;
1977;SDS011;989;53.016;8.346;2022-10-19T02:21:27;3.97;;;1.23;;
1977;SDS011;989;53.016;8.346;2022-10-19T02:23:53;4.13;;;1.43;;
1977;SDS011;989;53.016;8.346;2022-10-19T02:26:19;4.93;;;1.70;;
1977;SDS011;989;53.016;8.346;2022-10-19T02:28:45;9.20;;;1.50;;
1977;SDS011;989;53.016;8.346;2022-10-19T02:31:11;7.80;;;2.00;;
1977;SDS011;989;53.016;8.346;2022-10-19T02:33:38;8.27;;;1.10;;
1977;SDS011;989;53.016;8.346;2022-10-19T02:36:03;18.40;;;1.50;;
1977;SDS011;989;53.016;8.346;2022-10-19T02:38:29;3.30;;;1.37;;
1977;SDS011;989;53.016;8.346;2022-10-19T02:43:43;5.70;;;1.13;;
1977;SDS011;989;53.016;8.346;2022-10-19T02:49:25;11.57;;;2.00;;
1977;SDS011;989;53.016;8.346;2022-10-19T02:52:03;5.73;;;1.30;;
1977;SDS011;989;53.016;8.346;2022-10-19T02:54:31;15.43;;;2.57;;
1977;SDS011;989;53.016;8.346;2022-10-19T02:56:57;6.83;;;1.57;;
1977;SDS011;989;53.016;8.346;2022-10-19T02:59:23;6.67;;;1.90;;
1977;SDS011;989;53.016;8.346;2022-10-19T03:01:50;7.13;;;1.77;;
1977;SDS011;989;53.016;8.346;2022-10-19T03:04:16;8.50;;;1.63;;
1977;SDS011;989;53.016;8.346;2022-10-19T03:06:42;8.73;;;1.60;;
1977;SDS011;989;53.016;8.346;2022-10-19T03:09:08;9.20;;;1.73;;
1977;SDS011;989;53.016;8.346;2022-10-19T03:11:33;9.43;;;2.00;;
1977;SDS011;989;53.016;8.346;2022-10-19T03:13:59;8.30;;;1.40;;
1977;SDS011;989;53.016;8.346;2022-10-19T03:16:25;8.93;;;1.67;;
1977;SDS011;989;53.016;8.346;2022-10-19T03:18:50;3.60;;;1.50;;
1977;SDS011;989;53.016;8.346;2022-10-19T03:21:16;7.10;;;1.00;;
1977;SDS011;989;53.016;8.346;2022-10-19T03:23:43;6.20;;;1.20;;
1977;SDS011;989;53.016;8.346;2022-10-19T03:26:10;5.47;;;1.40;;
1977;SDS011;989;53.016;8.346;2022-10-19T03:28:39;13.07;;;2.00;;
1977;SDS011;989;53.016;8.346;2022-10-19T03:31:05;15.07;;;1.90;;
1977;SDS011;989;53.016;8.346;2022-10-19T03:33:31;14.03;;;2.00;;
1977;SDS011;989;53.016;8.346;2022-10-19T03:36:16;11.73;;;1.23;;
1977;SDS011;989;53.016;8.346;2022-10-19T03:38:53;6.17;;;1.30;;
1977;SDS011;989;53.016;8.346;2022-10-19T03:41:21;7.77;;;1.57;;
1977;SDS011;989;53.016;8.346;2022-10-19T03:43:49;4.47;;;1.30;;
1977;SDS011;989;53.016;8.346;2022-10-19T03:46:16;5.87;;;1.87;;
1977;SDS011;989;53.016;8.346;2022-10-19T03:48:41;5.97;;;1.40;;
1977;SDS011;989;53.016;8.346;2022-10-19T03:51:09;5.23;;;2.00;;
1977;SDS011;989;53.016;8.346;2022-10-19T03:53:38;7.97;;;1.40;;
1977;SDS011;989;53.016;8.346;2022-10-19T03:56:09;12.50;;;1.47;;
1977;SDS011;989;53.016;8.346;2022-10-19T03:58:42;7.93;;;1.60;;
1977;SDS011;989;53.016;8.346;2022-10-19T04:01:11;9.53;;;1.30;;
1977;SDS011;989;53.016;8.346;2022-10-19T04:03:43;2.60;;;1.03;;
1977;SDS011;989;53.016;8.346;2022-10-19T04:06:10;7.07;;;1.50;;
1977;SDS011;989;53.016;8.346;2022-10-19T04:08:39;6.37;;;1.60;;
1977;SDS011;989;53.016;8.346;2022-10-19T04:11:06;6.80;;;1.37;;
1977;SDS011;989;53.016;8.346;2022-10-19T04:13:35;3.90;;;1.30;;
1977;SDS011;989;53.016;8.346;2022-10-19T04:16:01;9.23;;;1.43;;
1977;SDS011;989;53.016;8.346;2022-10-19T04:18:28;6.60;;;1.60;;
1977;SDS011;989;53.016;8.346;2022-10-19T04:21:01;4.60;;;1.60;;
1977;SDS011;989;53.016;8.346;2022-10-19T04:23:30;11.40;;;1.50;;
1977;SDS011;989;53.016;8.346;2022-10-19T04:25:59;9.40;;;1.80;;
1977;SDS011;989;53.016;8.346;2022-10-19T04:28:29;6.37;;;2.10;;
1977;SDS011;989;53.016;8.346;2022-10-19T04:30:55;4.57;;;1.33;;
1977;SDS011;989;53.016;8.346;2022-10-19T04:33:21;5.17;;;1.37;;
1977;SDS011;989;53.016;8.346;2022-10-19T04:35:47;4.67;;;1.70;;
1977;SDS011;989;53.016;8.346;2022-10-19T04:38:13;7.93;;;1.30;;
1977;SDS011;989;53.016;8.346;2022-10-19T04:40:39;10.60;;;1.57;;
1977;SDS011;989;53.016;8.346;2022-10-19T04:43:04;18.90;;;3.03;;
1977;SDS011;989;53.016;8.346;2022-10-19T04:45:30;8.50;;;1.50;;
1977;SDS011;989;53.016;8.346;2022-10-19T04:47:59;12.17;;;2.23;;
1977;SDS011;989;53.016;8.346;2022-10-19T04:50:25;8.07;;;1.50;;
1977;SDS011;989;53.016;8.346;2022-10-19T04:52:50;8.67;;;1.40;;
1977;SDS011;989;53.016;8.346;2022-10-19T04:55:16;5.27;;;1.53;;
1977;SDS011;989;53.016;8.346;2022-10-19T04:57:42;10.20;;;2.97;;
1977;SDS011;989;53.016;8.346;2022-10-19T05:00:08;6.33;;;2.00;;
1977;SDS011;989;53.016;8.346;2022-10-19T05:02:34;16.43;;;2.17;;
1977;SDS011;989;53.016;8.346;2022-10-19T05:05:00;21.20;;;1.70;;
1977;SDS011;989;53.016;8.346;2022-10-19T05:07:26;18.57;;;2.30;;
1977;SDS011;989;53.016;8.346;2022-10-19T05:09:51;16.67;;;1.47;;
1977;SDS011;989;53.016;8.346;2022-10-19T05:12:17;22.73;;;2.17;;
1977;SDS011;989;53.016;8.346;2022-10-19T05:14:42;10.87;;;1.70;;
1977;SDS011;989;53.016;8.346;2022-10-19T05:17:08;10.83;;;2.23;;
1977;SDS011;989;53.016;8.346;2022-10-19T05:19:34;5.13;;;1.70;;
1977;SDS011;989;53.016;8.346;2022-10-19T05:21:59;12.60;;;1.60;;
1977;SDS011;989;53.016;8.346;2022-10-19T05:24:25;25.50;;;2.73;;
1977;SDS011;989;53.016;8.346;2022-10-19T05:26:50;4.20;;;1.30;;
1977;SDS011;989;53.016;8.346;2022-10-19T05:29:16;12.60;;;2.50;;
1977;SDS011;989;53.016;8.346;2022-10-19T05:31:42;7.67;;;1.90;;
1977;SDS011;989;53.016;8.346;2022-10-19T05:34:08;10.70;;;2.00;;
1977;SDS011;989;53.016;8.346;2022-10-19T05:36:34;11.57;;;1.60;;
1977;SDS011;989;53.016;8.346;2022-10-19T05:39:06;10.60;;;2.07;;
1977;SDS011;989;53.016;8.346;2022-10-19T05:41:34;14.07;;;2.73;;
1977;SDS011;989;53.016;8.346;2022-10-19T05:44:00;5.63;;;1.17;;
1977;SDS011;989;53.016;8.346;2022-10-19T05:46:28;15.87;;;2.23;;
1977;SDS011;989;53.016;8.346;2022-10-19T05:48:55;16.00;;;2.43;;
1977;SDS011;989;53.016;8.346;2022-10-19T05:51:22;8.80;;;1.27;;
1977;SDS011;989;53.016;8.346;2022-10-19T05:53:51;8.43;;;1.60;;
1977;SDS011;989;53.016;8.346;2022-10-19T05:56:19;23.00;;;1.63;;
1977;SDS011;989;53.016;8.346;2022-10-19T05:58:48;8.70;;;1.90;;
1977;SDS011;989;53.016;8.346;2022-10-19T06:01:15;3.57;;;2.80;;
1977;SDS011;989;53.016;8.346;2022-10-19T06:03:43;9.87;;;2.40;;
1977;SDS011;989;53.016;8.346;2022-10-19T06:06:09;13.37;;;2.10;;
1977;SDS011;989;53.016;8.346;2022-10-19T06:08:36;11.83;;;2.03;;
1977;SDS011;989;53.016;8.346;2022-10-19T06:11:13;12.10;;;1.50;;
1977;SDS011;989;53.016;8.346;2022-10-19T06:13:41;3.67;;;1.60;;
1977;SDS011;989;53.016;8.346;2022-10-19T06:16:10;11.50;;;2.13;;
1977;SDS011;989;53.016;8.346;2022-10-19T06:18:38;21.90;;;2.20;;
1977;SDS011;989;53.016;8.346;2022-10-19T06:21:05;5.27;;;1.53;;
1977;SDS011;989;53.016;8.346;2022-10-19T06:23:39;14.80;;;2.37;;
1977;SDS011;989;53.016;8.346;2022-10-19T06:26:06;12.37;;;1.70;;
1977;SDS011;989;53.016;8.346;2022-10-19T06:28:36;19.17;;;2.60;;
1977;SDS011;989;53.016;8.346;2022-10-19T06:31:03;11.40;;;1.63;;
1977;SDS011;989;53.016;8.346;2022-10-19T06:33:29;17.53;;;2.00;;
1977;SDS011;989;53.016;8.346;2022-10-19T06:35:55;13.53;;;1.90;;
1977;SDS011;989;53.016;8.346;2022-10-19T06:38:29;10.50;;;2.00;;
1977;SDS011;989;53.016;8.346;2022-10-19T06:40:58;6.27;;;1.83;;
1977;SDS011;989;53.016;8.346;2022-10-19T06:43:24;16.20;;;2.00;;
1977;SDS011;989;53.016;8.346;2022-10-19T06:45:50;18.00;;;2.33;;
1977;SDS011;989;53.016;8.346;2022-10-19T06:48:16;10.30;;;1.97;;
1977;SDS011;989;53.016;8.346;2022-10-19T06:50:42;10.77;;;1.67;;
1977;SDS011;989;53.016;8.346;2022-10-19T06:53:07;9.70;;;2.60;;
1977;SDS011;989;53.016;8.346;2022-10-19T06:55:33;8.37;;;2.00;;
1977;SDS011;989;53.016;8.346;2022-10-19T06:58:00;9.77;;;2.43;;
1977;SDS011;989;53.016;8.346;2022-10-19T07:00:29;16.17;;;2.40;;
1977;SDS011;989;53.016;8.346;2022-10-19T07:02:55;4.40;;;1.93;;
1977;SDS011;989;53.016;8.346;2022-10-19T07:05:23;7.17;;;1.47;;
1977;SDS011;989;53.016;8.346;2022-10-19T07:07:49;7.60;;;1.93;;
1977;SDS011;989;53.016;8.346;2022-10-19T07:10:14;21.40;;;2.70;;
1977;SDS011;989;53.016;8.346;2022-10-19T07:12:40;9.53;;;1.57;;
1977;SDS011;989;53.016;8.346;2022-10-19T07:15:06;4.60;;;1.90;;
1977;SDS011;989;53.016;8.346;2022-10-19T07:17:32;17.63;;;2.47;;
1977;SDS011;989;53.016;8.346;2022-10-19T07:19:58;5.20;;;1.50;;
1977;SDS011;989;53.016;8.346;2022-10-19T07:22:24;8.97;;;2.00;;
1977;SDS011;989;53.016;8.346;2022-10-19T07:24:49;14.17;;;2.50;;
1977;SDS011;989;53.016;8.346;2022-10-19T07:27:16;6.20;;;1.77;;
1977;SDS011;989;53.016;8.346;2022-10-19T07:29:42;12.10;;;2.83;;
1977;SDS011;989;53.016;8.346;2022-10-19T07:32:08;23.30;;;1.93;;
1977;SDS011;989;53.016;8.346;2022-10-19T07:34:33;9.73;;;2.43;;
1977;SDS011;989;53.016;8.346;2022-10-19T07:36:59;10.60;;;2.63;;
1977;SDS011;989;53.016;8.346;2022-10-19T07:39:25;11.60;;;2.17;;
1977;SDS011;989;53.016;8.346;2022-10-19T07:41:51;35.47;;;2.17;;
1977;SDS011;989;53.016;8.346;2022-10-19T07:44:17;4.93;;;1.80;;
1977;SDS011;989;53.016;8.346;2022-10-19T07:46:43;8.83;;;2.30;;
1977;SDS011;989;53.016;8.346;2022-10-19T07:49:09;11.50;;;1.90;;
1977;SDS011;989;53.016;8.346;2022-10-19T07:51:40;10.07;;;2.03;;
1977;SDS011;989;53.016;8.346;2022-10-19T07:54:06;15.60;;;2.00;;
1977;SDS011;989;53.016;8.346;2022-10-19T07:56:32;9.80;;;2.67;;
1977;SDS011;989;53.016;8.346;2022-10-19T07:58:59;15.50;;;2.20;;
1977;SDS011;989;53.016;8.346;2022-10-19T08:01:26;10.23;;;2.27;;
1977;SDS011;989;53.016;8.346;2022-10-19T08:03:56;7.50;;;2.30;;
1977;SDS011;989;53.016;8.346;2022-10-19T08:06:24;15.17;;;2.20;;
1977;SDS011;989;53.016;8.346;2022-10-19T08:08:50;12.60;;;2.27;;
1977;SDS011;989;53.016;8.346;2022-10-19T08:11:18;11.07;;;2.20;;
1977;SDS011;989;53.016;8.346;2022-10-19T08:13:49;11.83;;;2.30;;
1977;SDS011;989;53.016;8.346;2022-10-19T08:18:46;10.73;;;2.07;;
1977;SDS011;989;53.016;8.346;2022-10-19T08:21:13;10.37;;;2.17;;
1977;SDS011;989;53.016;8.346;2022-10-19T08:23:39;11.53;;;2.03;;
1977;SDS011;989;53.016;8.346;2022-10-19T08:26:05;6.80;;;1.33;;
1977;SDS011;989;53.016;8.346;2022-10-19T08:28:31;5.97;;;1.87;;
1977;SDS011;989;53.016;8.346;2022-10-19T08:30:56;10.47;;;1.70;;
1977;SDS011;989;53.016;8.346;2022-10-19T08:33:23;7.27;;;2.53;;
1977;SDS011;989;53.016;8.346;2022-10-19T08:35:50;12.17;;;1.90;;
1977;SDS011;989;53.016;8.346;2022-10-19T08:38:18;9.43;;;1.60;;
1977;SDS011;989;53.016;8.346;2022-10-19T08:40:44;6.70;;;1.43;;
1977;SDS011;989;53.016;8.346;2022-10-19T08:43:12;7.97;;;1.60;;
1977;SDS011;989;53.016;8.346;2022-10-19T08:46:12;6.93;;;1.30;;
1977;SDS011;989;53.016;8.346;2022-10-19T08:49:02;4.37;;;1.33;;
1977;SDS011;989;53.016;8.346;2022-10-19T08:51:30;5.30;;;1.70;;
1977;SDS011;989;53.016;8.346;2022-10-19T08:54:03;4.03;;;1.30;;
1977;SDS011;989;53.016;8.346;2022-10-19T08:56:49;8.87;;;1.90;;
1977;SDS011;989;53.016;8.346;2022-10-19T08:59:42;6.90;;;1.60;;
1977;SDS011;989;53.016;8.346;2022-10-19T09:02:21;7.73;;;1.23;;
1977;SDS011;989;53.016;8.346;2022-10-19T09:05:19;14.00;;;1.73;;
1977;SDS011;989;53.016;8.346;2022-10-19T09:08:10;6.50;;;1.33;;
1977;SDS011;989;53.016;8.346;2022-10-19T09:10:41;11.60;;;1.50;;
1977;SDS011;989;53.016;8.346;2022-10-19T09:15:59;13.33;;;1.90;;
1977;SDS011;989;53.016;8.346;2022-10-19T09:18:30;9.43;;;1.80;;
1977;SDS011;989;53.016;8.346;2022-10-19T09:21:08;10.17;;;2.00;;
1977;SDS011;989;53.016;8.346;2022-10-19T09:23:40;5.70;;;1.40;;
1977;SDS011;989;53.016;8.346;2022-10-19T09:26:28;4.00;;;1.20;;
1977;SDS011;989;53.016;8.346;2022-10-19T09:32:11;9.63;;;2.80;;
1977;SDS011;989;53.016;8.346;2022-10-19T09:34:59;4.23;;;1.53;;
1977;SDS011;989;53.016;8.346;2022-10-19T09:37:28;11.47;;;1.70;;
1977;SDS011;989;53.016;8.346;2022-10-19T09:39:56;6.07;;;1.70;;
1977;SDS011;989;53.016;8.346;2022-10-19T09:42:28;5.40;;;1.73;;
1977;SDS011;989;53.016;8.346;2022-10-19T09:44:57;7.77;;;2.17;;
1977;SDS011;989;53.016;8.346;2022-10-19T09:48:04;9.93;;;2.27;;
1977;SDS011;989;53.016;8.346;2022-10-19T09:51:00;10.93;;;2.03;;
1977;SDS011;989;53.016;8.346;2022-10-19T09:53:28;11.33;;;2.27;;
1977;SDS011;989;53.016;8.346;2022-10-19T09:56:04;8.30;;;1.77;;
1977;SDS011;989;53.016;8.346;2022-10-19T09:58:33;5.20;;;1.80;;
1977;SDS011;989;53.016;8.346;2022-10-19T10:01:00;6.27;;;1.67;;
1977;SDS011;989;53.016;8.346;2022-10-19T10:03:31;8.73;;;1.63;;
1977;SDS011;989;53.016;8.346;2022-10-19T10:06:01;8.17;;;2.10;;
1977;SDS011;989;53.016;8.346;2022-10-19T10:08:43;6.03;;;2.13;;
1977;SDS011;989;53.016;8.346;2022-10-19T10:11:14;15.57;;;2.10;;
1977;SDS011;989;53.016;8.346;2022-10-19T10:13:48;6.07;;;1.80;;
1977;SDS011;989;53.016;8.346;2022-10-19T10:16:17;8.47;;;2.37;;
1977;SDS011;989;53.016;8.346;2022-10-19T10:21:24;8.70;;;3.10;;
1977;SDS011;989;53.016;8.346;2022-10-19T10:24:05;6.80;;;1.70;;
1977;SDS011;989;53.016;8.346;2022-10-19T10:26:42;11.40;;;2.53;;
1977;SDS011;989;53.016;8.346;2022-10-19T10:29:19;7.70;;;1.97;;
1977;SDS011;989;53.016;8.346;2022-10-19T10:31:48;7.53;;;2.20;;
1977;SDS011;989;53.016;8.346;2022-10-19T10:34:29;6.80;;;1.40;;
1977;SDS011;989;53.016;8.346;2022-10-19T10:37:40;9.27;;;3.10;;
1977;SDS011;989;53.016;8.346;2022-10-19T10:40:27;7.13;;;2.23;;
1977;SDS011;989;53.016;8.346;2022-10-19T10:42:55;5.27;;;1.50;;
1977;SDS011;989;53.016;8.346;2022-10-19T10:45:31;9.70;;;1.60;;
1977;SDS011;989;53.016;8.346;2022-10-19T10:48:50;5.30;;;1.53;;
1977;SDS011;989;53.016;8.346;2022-10-19T10:50:55;9.23;;;2.73;;
1977;SDS011;989;53.016;8.346;2022-10-19T10:53:33;5.50;;;1.50;;
1977;SDS011;989;53.016;8.346;2022-10-19T10:56:03;9.27;;;1.63;;
1977;SDS011;989;53.016;8.346;2022-10-19T10:58:41;14.70;;;2.03;;
1977;SDS011;989;53.016;8.346;2022-10-19T11:05:03;5.17;;;1.60;;
1977;SDS011;989;53.016;8.346;2022-10-19T11:07:44;12.77;;;1.90;;
1977;SDS011;989;53.016;8.346;2022-10-19T11:10:27;9.70;;;1.80;;
1977;SDS011;989;53.016;8.346;2022-10-19T11:16:07;4.13;;;1.90;;
1977;SDS011;989;53.016;8.346;2022-10-19T11:18:42;4.57;;;1.40;;
1977;SDS011;989;53.016;8.346;2022-10-19T11:21:21;8.63;;;2.33;;
1977;SDS011;989;53.016;8.346;2022-10-19T11:26:58;6.00;;;1.83;;
1977;SDS011;989;53.016;8.346;2022-10-19T11:32:38;17.27;;;2.10;;
1977;SDS011;989;53.016;8.346;2022-10-19T11:38:34;9.80;;;2.43;;
1977;SDS011;989;53.016;8.346;2022-10-19T11:41:40;4.10;;;1.50;;
1977;SDS011;989;53.016;8.346;2022-10-19T11:47:57;12.83;;;2.07;;
1977;SDS011;989;53.016;8.346;2022-10-19T11:56:08;9.53;;;1.93;;
1977;SDS011;989;53.016;8.346;2022-10-19T12:01:48;7.87;;;2.03;;
1977;SDS011;989;53.016;8.346;2022-10-19T12:04:38;11.13;;;2.30;;
1977;SDS011;989;53.016;8.346;2022-10-19T12:07:33;2.87;;;1.43;;
1977;SDS011;989;53.016;8.346;2022-10-19T12:10:16;5.13;;;1.60;;
1977;SDS011;989;53.016;8.346;2022-10-19T12:13:18;5.73;;;1.43;;
1977;SDS011;989;53.016;8.346;2022-10-19T12:15:57;8.23;;;1.80;;
1977;SDS011;989;53.016;8.346;2022-10-19T12:18:32;7.07;;;1.70;;
1977;SDS011;989;53.016;8.346;2022-10-19T12:23:45;9.13;;;1.87;;
1977;SDS011;989;53.016;8.346;2022-10-19T12:26:16;6.33;;;1.83;;
1977;SDS011;989;53.016;8.346;2022-10-19T12:28:52;8.20;;;1.80;;
1977;SDS011;989;53.016;8.346;2022-10-19T12:31:23;4.80;;;1.53;;
1977;SDS011;989;53.016;8.346;2022-10-19T12:34:08;14.30;;;2.43;;
1977;SDS011;989;53.016;8.346;2022-10-19T12:37:01;14.70;;;1.80;;
1977;SDS011;989;53.016;8.346;2022-10-19T12:39:41;5.27;;;2.33;;
1977;SDS011;989;53.016;8.346;2022-10-19T12:42:32;4.33;;;1.70;;
1977;SDS011;989;53.016;8.346;2022-10-19T12:45:48;3.73;;;1.20;;
1977;SDS011;989;53.016;8.346;2022-10-19T12:48:34;9.93;;;2.60;;
1977;SDS011;989;53.016;8.346;2022-10-19T12:51:03;4.57;;;1.30;;
1977;SDS011;989;53.016;8.346;2022-10-19T12:53:34;7.03;;;1.93;;
1977;SDS011;989;53.016;8.346;2022-10-19T12:56:20;6.50;;;1.73;;
1977;SDS011;989;53.016;8.346;2022-10-19T12:58:51;8.53;;;1.97;;
1977;SDS011;989;53.016;8.346;2022-10-19T13:04:14;7.87;;;1.70;;
1977;SDS011;989;53.016;8.346;2022-10-19T13:09:34;5.27;;;1.53;;
1977;SDS011;989;53.016;8.346;2022-10-19T13:14:48;6.57;;;1.53;;
1977;SDS011;989;53.016;8.346;2022-10-19T13:22:41;5.10;;;1.10;;
1977;SDS011;989;53.016;8.346;2022-10-19T13:25:19;7.27;;;2.00;;
1977;SDS011;989;53.016;8.346;2022-10-19T13:27:48;6.60;;;1.73;;
1977;SDS011;989;53.016;8.346;2022-10-19T13:39:10;8.07;;;1.80;;
1977;SDS011;989;53.016;8.346;2022-10-19T13:41:18;10.90;;;2.70;;
1977;SDS011;989;53.016;8.346;2022-10-19T13:46:49;7.27;;;1.10;;
1977;SDS011;989;53.016;8.346;2022-10-19T13:55:27;8.00;;;1.50;;
1977;SDS011;989;53.016;8.346;2022-10-19T14:03:50;14.33;;;1.90;;
1977;SDS011;989;53.016;8.346;2022-10-19T14:06:52;13.87;;;1.00;;
1977;SDS011;989;53.016;8.346;2022-10-19T14:12:45;12.10;;;2.07;;
1977;SDS011;989;53.016;8.346;2022-10-19T14:15:19;7.10;;;1.30;;
1977;SDS011;989;53.016;8.346;2022-10-19T14:17:55;8.53;;;1.80;;
1977;SDS011;989;53.016;8.346;2022-10-19T14:20:39;9.13;;;2.00;;
1977;SDS011;989;53.016;8.346;2022-10-19T14:23:25;5.70;;;1.40;;
1977;SDS011;989;53.016;8.346;2022-10-19T14:26:01;4.97;;;1.60;;
1977;SDS011;989;53.016;8.346;2022-10-19T14:28:38;7.30;;;1.83;;
1977;SDS011;989;53.016;8.346;2022-10-19T14:31:06;6.80;;;1.57;;
1977;SDS011;989;53.016;8.346;2022-10-19T14:33:35;16.73;;;1.90;;
1977;SDS011;989;53.016;8.346;2022-10-19T14:36:04;5.00;;;1.43;;
1977;SDS011;989;53.016;8.346;2022-10-19T14:38:37;4.67;;;1.90;;
1977;SDS011;989;53.016;8.346;2022-10-19T14:41:16;3.43;;;1.70;;
1977;SDS011;989;53.016;8.346;2022-10-19T14:43:57;5.10;;;1.37;;
1977;SDS011;989;53.016;8.346;2022-10-19T14:46:33;6.70;;;1.30;;
1977;SDS011;989;53.016;8.346;2022-10-19T14:49:03;2.43;;;1.13;;
1977;SDS011;989;53.016;8.346;2022-10-19T14:54:20;7.00;;;1.73;;
1977;SDS011;989;53.016;8.346;2022-10-19T14:59:49;5.23;;;1.80;;
1977;SDS011;989;53.016;8.346;2022-10-19T15:02:22;5.60;;;1.53;;
1977;SDS011;989;53.016;8.346;2022-10-19T15:04:56;5.03;;;1.33;;
1977;SDS011;989;53.016;8.346;2022-10-19T15:07:38;3.00;;;1.63;;
1977;SDS011;989;53.016;8.346;2022-10-19T15:10:07;12.13;;;2.03;;
1977;SDS011;989;53.016;8.346;2022-10-19T15:12:55;8.60;;;1.70;;
1977;SDS011;989;53.016;8.346;2022-10-19T15:15:27;9.93;;;2.33;;
1977;SDS011;989;53.016;8.346;2022-10-19T15:18:02;17.67;;;1.73;;
1977;SDS011;989;53.016;8.346;2022-10-19T15:20:34;13.50;;;2.20;;
1977;SDS011;989;53.016;8.346;2022-10-19T15:26:26;6.90;;;1.50;;
1977;SDS011;989;53.016;8.346;2022-10-19T15:28:54;4.40;;;2.00;;
1977;SDS011;989;53.016;8.346;2022-10-19T15:31:32;4.33;;;1.40;;
1977;SDS011;989;53.016;8.346;2022-10-19T15:33:58;10.20;;;2.00;;
1977;SDS011;989;53.016;8.346;2022-10-19T15:36:26;14.23;;;2.03;;
1977;SDS011;989;53.016;8.346;2022-10-19T15:38:58;4.07;;;1.00;;
1977;SDS011;989;53.016;8.346;2022-10-19T15:41:30;6.13;;;1.50;;
1977;SDS011;989;53.016;8.346;2022-10-19T15:44:02;9.20;;;2.30;;
1977;SDS011;989;53.016;8.346;2022-10-19T15:51:42;4.60;;;1.50;;
1977;SDS011;989;53.016;8.346;2022-10-19T15:54:09;8.33;;;2.10;;
1977;SDS011;989;53.016;8.346;2022-10-19T15:56:40;2.63;;;1.00;;
1977;SDS011;989;53.016;8.346;2022-10-19T15:59:13;8.13;;;2.57;;
1977;SDS011;989;53.016;8.346;2022-10-19T16:01:43;6.70;;;1.50;;
1977;SDS011;989;53.016;8.346;2022-10-19T16:04:11;7.47;;;1.80;;
1977;SDS011;989;53.016;8.346;2022-10-19T16:06:39;9.20;;;2.43;;
1977;SDS011;989;53.016;8.346;2022-10-19T16:09:12;8.83;;;2.63;;
1977;SDS011;989;53.016;8.346;2022-10-19T16:11:44;5.83;;;1.60;;
1977;SDS011;989;53.016;8.346;2022-10-19T16:14:10;3.30;;;1.67;;
1977;SDS011;989;53.016;8.346;2022-10-19T16:16:36;9.70;;;1.70;;
1977;SDS011;989;53.016;8.346;2022-10-19T16:19:02;6.60;;;1.50;;
1977;SDS011;989;53.016;8.346;2022-10-19T16:21:30;9.03;;;1.70;;
1977;SDS011;989;53.016;8.346;2022-10-19T16:23:59;7.50;;;2.23;;
1977;SDS011;989;53.016;8.346;2022-10-19T16:26:25;7.23;;;2.10;;
1977;SDS011;989;53.016;8.346;2022-10-19T16:28:54;2.33;;;1.63;;
1977;SDS011;989;53.016;8.346;2022-10-19T16:31:21;4.67;;;1.93;;
1977;SDS011;989;53.016;8.346;2022-10-19T16:33:47;9.63;;;2.27;;
1977;SDS011;989;53.016;8.346;2022-10-19T16:36:13;4.10;;;1.73;;
1977;SDS011;989;53.016;8.346;2022-10-19T16:38:42;3.63;;;1.70;;
1977;SDS011;989;53.016;8.346;2022-10-19T16:41:08;11.50;;;2.20;;
1977;SDS011;989;53.016;8.346;2022-10-19T16:43:35;12.40;;;2.37;;
1977;SDS011;989;53.016;8.346;2022-10-19T16:46:01;13.57;;;2.07;;
1977;SDS011;989;53.016;8.346;2022-10-19T16:48:28;5.30;;;2.07;;
1977;SDS011;989;53.016;8.346;2022-10-19T16:53:29;4.60;;;2.10;;
1977;SDS011;989;53.016;8.346;2022-10-19T16:56:02;5.90;;;2.50;;
1977;SDS011;989;53.016;8.346;2022-10-19T16:58:34;4.33;;;2.30;;
1977;SDS011;989;53.016;8.346;2022-10-19T17:01:07;11.77;;;2.60;;
1977;SDS011;989;53.016;8.346;2022-10-19T17:03:35;9.43;;;2.83;;
1977;SDS011;989;53.016;8.346;2022-10-19T17:06:02;10.03;;;3.77;;
1977;SDS011;989;53.016;8.346;2022-10-19T17:08:29;6.60;;;3.10;;
1977;SDS011;989;53.016;8.346;2022-10-19T17:10:56;7.43;;;3.10;;
1977;SDS011;989;53.016;8.346;2022-10-19T17:13:22;12.47;;;4.30;;
1977;SDS011;989;53.016;8.346;2022-10-19T17:15:48;6.57;;;2.73;;
1977;SDS011;989;53.016;8.346;2022-10-19T17:18:14;11.00;;;3.33;;
1977;SDS011;989;53.016;8.346;2022-10-19T17:20:39;4.60;;;2.23;;
1977;SDS011;989;53.016;8.346;2022-10-19T17:23:05;14.93;;;3.07;;
1977;SDS011;989;53.016;8.346;2022-10-19T17:25:31;13.33;;;2.60;;
1977;SDS011;989;53.016;8.346;2022-10-19T17:27:56;6.60;;;2.47;;
1977;SDS011;989;53.016;8.346;2022-10-19T17:30:22;31.53;;;6.37;;
1977;SDS011;989;53.016;8.346;2022-10-19T17:32:47;18.83;;;5.73;;
1977;SDS011;989;53.016;8.346;2022-10-19T17:35:13;23.03;;;8.53;;
1977;SDS011;989;53.016;8.346;2022-10-19T17:37:39;20.63;;;7.60;;
1977;SDS011;989;53.016;8.346;2022-10-19T17:40:05;17.80;;;6.30;;
1977;SDS011;989;53.016;8.346;2022-10-19T17:42:31;10.90;;;5.17;;
1977;SDS011;989;53.016;8.346;2022-10-19T17:45:00;20.20;;;5.00;;
1977;SDS011;989;53.016;8.346;2022-10-19T17:47:26;12.00;;;4.23;;
1977;SDS011;989;53.016;8.346;2022-10-19T17:49:51;7.00;;;3.57;;
1977;SDS011;989;53.016;8.346;2022-10-19T17:52:17;10.80;;;3.13;;
1977;SDS011;989;53.016;8.346;2022-10-19T17:54:43;6.77;;;3.13;;